Terminal Aerodrome Forecast
Issued by NWS

Current Version | Previous Version | Text Only | Print | Product List | Glossary Off
Versions: 1 2 3 4 5 6 7 8 9 10 11 12 13 14 15 16

000
FTUS41 KRNK 301726 AAA
TAFLWB
TAF AMD
KLWB 301726Z 3017/0118 19009KT P6SM VCTS SCT060CB
     FM302000 19010KT P6SM SCT060
     FM010900 17009KT P6SM BKN030
     FM011600 18012G22KT 3SM -SHRA OVC030=

USA.gov is the U.S. government's official web portal to all federal, state and local government web resources and services.